createdAt,value
2023-08-15T00:02:12.948Z,3.03
2023-08-15T00:04:41.197Z,3.60
2023-08-15T00:07:09.428Z,2.92
2023-08-15T00:09:37.552Z,2.90
2023-08-15T00:12:06.265Z,3.15
2023-08-15T00:14:34.422Z,3.50
2023-08-15T00:17:02.564Z,3.08
2023-08-15T00:19:32.109Z,3.38
2023-08-15T00:22:00.275Z,3.35
2023-08-15T00:24:28.397Z,3.38
2023-08-15T00:26:56.552Z,3.08
2023-08-15T00:29:24.659Z,3.20
2023-08-15T00:31:52.916Z,2.50
2023-08-15T00:34:21.160Z,2.53
2023-08-15T00:36:50.630Z,3.40
2023-08-15T00:39:19.543Z,3.10
2023-08-15T00:41:47.697Z,3.13
2023-08-15T00:44:15.890Z,3.22
2023-08-15T00:46:44.675Z,2.95
2023-08-15T00:49:13.003Z,3.40
2023-08-15T00:51:41.734Z,2.60
2023-08-15T00:54:11.245Z,2.95
2023-08-15T00:56:39.516Z,3.35
2023-08-15T00:59:08.329Z,2.90
2023-08-15T01:01:38.301Z,2.90
2023-08-15T01:04:08.193Z,3.03
2023-08-15T01:06:36.362Z,3.00
2023-08-15T01:09:04.712Z,3.05
2023-08-15T01:11:41.821Z,2.80
2023-08-15T01:14:17.037Z,3.17
2023-08-15T01:16:49.513Z,3.50
2023-08-15T01:19:30.942Z,3.22
2023-08-15T01:22:01.948Z,3.30
2023-08-15T01:24:32.196Z,3.17
2023-08-15T01:27:00.296Z,3.20
2023-08-15T01:29:28.840Z,3.20
2023-08-15T01:32:05.535Z,3.30
2023-08-15T01:34:38.461Z,2.88
2023-08-15T01:37:11.041Z,2.67
2023-08-15T01:39:42.927Z,3.47
2023-08-15T01:42:12.982Z,2.70
2023-08-15T01:44:41.096Z,3.20
2023-08-15T01:47:09.275Z,3.22
2023-08-15T01:49:37.652Z,3.17
2023-08-15T01:52:06.317Z,2.80
2023-08-15T01:54:34.532Z,3.10
2023-08-15T01:57:04.106Z,3.08
2023-08-15T01:59:32.653Z,3.30
2023-08-15T02:02:00.876Z,2.83
2023-08-15T02:04:29.007Z,2.92
2023-08-15T02:06:57.213Z,2.67
2023-08-15T02:09:25.382Z,3.55
2023-08-15T02:11:53.849Z,2.92
2023-08-15T02:14:23.352Z,2.97
2023-08-15T02:16:51.560Z,3.03
2023-08-15T02:19:19.692Z,2.97
2023-08-15T02:21:47.791Z,2.97
2023-08-15T02:24:15.955Z,2.92
2023-08-15T02:26:44.049Z,3.03
2023-08-15T02:29:14.411Z,2.80
2023-08-15T02:31:49.083Z,3.55
2023-08-15T02:34:19.363Z,3.28
2023-08-15T02:36:48.999Z,2.63
2023-08-15T02:39:17.975Z,2.85
2023-08-15T02:41:46.357Z,3.03
2023-08-15T02:44:14.479Z,3.33
2023-08-15T02:46:42.642Z,2.97
2023-08-15T02:49:12.206Z,3.17
2023-08-15T02:51:40.581Z,3.10
2023-08-15T02:54:08.846Z,3.17
2023-08-15T02:56:37.058Z,3.65
2023-08-15T02:59:05.602Z,3.60
2023-08-15T03:01:34.125Z,3.60
2023-08-15T03:04:02.218Z,3.63
2023-08-15T03:06:31.892Z,3.78
2023-08-15T03:09:00.103Z,3.85
2023-08-15T03:11:29.112Z,3.50
2023-08-15T03:13:57.214Z,3.40
2023-08-15T03:16:25.454Z,3.45
2023-08-15T03:18:53.637Z,3.40
2023-08-15T03:21:21.767Z,3.05
2023-08-15T03:23:51.269Z,3.28
2023-08-15T03:26:19.437Z,3.50
2023-08-15T03:28:47.703Z,3.00
2023-08-15T03:31:15.909Z,3.17
2023-08-15T03:33:44.030Z,3.70
2023-08-15T03:36:12.222Z,3.47
2023-08-15T03:38:42.185Z,3.63
2023-08-15T03:41:11.725Z,4.15
2023-08-15T03:43:39.821Z,4.55
2023-08-15T03:46:08.741Z,4.35
2023-08-15T03:48:37.326Z,4.57
2023-08-15T03:51:06.300Z,4.30
2023-08-15T03:53:34.425Z,4.18
2023-08-15T03:56:02.582Z,4.25
2023-08-15T03:58:32.231Z,3.63
2023-08-15T04:01:02.216Z,3.28
2023-08-15T04:03:30.445Z,3.33
2023-08-15T04:05:58.605Z,4.38
2023-08-15T04:08:26.708Z,4.70
2023-08-15T04:10:55.745Z,4.45
2023-08-15T04:13:23.985Z,5.03
2023-08-15T04:15:53.623Z,5.55
2023-08-15T04:18:21.802Z,4.75
2023-08-15T04:20:49.948Z,4.63
2023-08-15T04:23:18.105Z,4.60
2023-08-15T04:25:47.084Z,4.70
2023-08-15T04:28:15.213Z,5.15
2023-08-15T04:30:43.375Z,4.00
2023-08-15T04:33:13.005Z,4.32
2023-08-15T04:35:41.135Z,4.18
2023-08-15T04:38:09.286Z,4.88
2023-08-15T04:40:41.407Z,4.25
2023-08-15T04:43:09.996Z,4.18
2023-08-15T04:45:41.905Z,4.45
2023-08-15T04:48:12.651Z,4.68
2023-08-15T04:50:41.184Z,4.22
2023-08-15T04:53:09.835Z,4.50
2023-08-15T04:55:37.949Z,4.53
2023-08-15T04:58:06.336Z,5.13
2023-08-15T05:00:35.511Z,4.75
2023-08-15T05:03:03.793Z,5.38
2023-08-15T05:05:33.500Z,5.50
2023-08-15T05:08:01.702Z,5.25
2023-08-15T05:10:29.912Z,6.22
2023-08-15T05:13:00.384Z,5.07
2023-08-15T05:15:29.086Z,5.22
2023-08-15T05:17:57.335Z,5.22
2023-08-15T05:20:25.635Z,4.95
2023-08-15T05:22:55.306Z,5.20
2023-08-15T05:25:23.564Z,4.10
2023-08-15T05:27:52.042Z,3.85
2023-08-15T05:30:20.413Z,3.78
2023-08-15T05:32:48.643Z,3.58
2023-08-15T05:35:16.890Z,3.50
2023-08-15T05:37:45.010Z,4.15
2023-08-15T05:40:14.573Z,3.78
2023-08-15T05:42:42.712Z,4.63
2023-08-15T05:45:11.844Z,4.25
2023-08-15T05:47:40.042Z,4.00
2023-08-15T05:50:09.219Z,4.63
2023-08-15T05:52:37.326Z,3.45
2023-08-15T05:55:05.948Z,2.75
2023-08-15T05:57:35.576Z,3.80
2023-08-15T06:00:05.420Z,3.65
2023-08-15T06:02:36.258Z,3.90
2023-08-15T06:05:04.574Z,3.80
2023-08-15T06:07:33.057Z,4.13
2023-08-15T06:10:01.313Z,3.72
2023-08-15T06:12:29.429Z,4.10
2023-08-15T06:14:58.922Z,3.65
2023-08-15T06:17:27.075Z,3.90
2023-08-15T06:19:55.821Z,3.58
2023-08-15T06:22:24.000Z,3.33
2023-08-15T06:24:52.285Z,3.20
2023-08-15T06:27:20.633Z,3.15
2023-08-15T06:29:48.899Z,3.03
2023-08-15T06:32:32.106Z,3.25
2023-08-15T06:35:01.938Z,2.90
2023-08-15T06:37:30.201Z,3.20
2023-08-15T06:39:58.307Z,3.63
2023-08-15T06:42:26.557Z,3.35
2023-08-15T06:45:08.678Z,3.05
2023-08-15T06:47:38.193Z,3.08
2023-08-15T06:50:07.928Z,3.08
2023-08-15T06:52:36.050Z,3.40
2023-08-15T06:55:05.007Z,2.97
2023-08-15T06:57:33.422Z,3.75
2023-08-15T07:00:01.660Z,2.90
2023-08-15T07:02:30.075Z,2.60
2023-08-15T07:04:59.724Z,2.55
2023-08-15T07:07:27.942Z,2.40
2023-08-15T07:09:56.115Z,2.50
2023-08-15T07:12:24.336Z,2.80
2023-08-15T07:14:52.482Z,3.15
2023-08-15T07:17:20.565Z,2.15
2023-08-15T07:19:48.641Z,2.10
2023-08-15T07:22:18.145Z,2.42
2023-08-15T07:24:46.403Z,2.50
2023-08-15T07:27:14.647Z,1.95
2023-08-15T07:29:42.746Z,2.50
2023-08-15T07:32:13.389Z,2.10
2023-08-15T07:34:42.131Z,2.25
2023-08-15T07:37:10.387Z,1.73
2023-08-15T07:39:39.878Z,2.00
2023-08-15T07:42:08.555Z,2.30
2023-08-15T07:44:36.818Z,2.25
2023-08-15T07:47:05.193Z,2.00
2023-08-15T07:49:33.768Z,1.95
2023-08-15T07:52:07.408Z,1.60
2023-08-15T07:54:36.019Z,1.60
2023-08-15T07:57:05.839Z,1.30
2023-08-15T07:59:34.006Z,1.77
2023-08-15T08:02:02.129Z,1.58
2023-08-15T08:04:30.422Z,1.55
2023-08-15T08:06:58.519Z,1.58
2023-08-15T08:09:26.873Z,1.80
2023-08-15T08:11:57.683Z,1.67
2023-08-15T08:14:27.192Z,1.55
2023-08-15T08:16:55.286Z,1.85
2023-08-15T08:19:23.371Z,1.65
2023-08-15T08:21:51.533Z,1.60
2023-08-15T08:24:19.964Z,1.90
2023-08-15T08:26:48.217Z,1.60
2023-08-15T08:29:16.506Z,1.60
2023-08-15T08:31:46.003Z,1.60
2023-08-15T08:34:15.835Z,1.60
2023-08-15T08:36:44.252Z,1.45
2023-08-15T08:39:25.625Z,1.52
2023-08-15T08:41:59.917Z,1.42
2023-08-15T08:44:29.558Z,1.42
2023-08-15T08:47:01.264Z,1.58
2023-08-15T08:49:31.312Z,2.00
2023-08-15T08:52:01.565Z,1.70
2023-08-15T08:54:46.924Z,1.35
2023-08-15T08:57:15.696Z,1.50
2023-08-15T08:59:45.808Z,1.60
2023-08-15T09:02:21.151Z,1.20
2023-08-15T09:04:50.464Z,1.20
2023-08-15T09:07:18.811Z,1.30
2023-08-15T09:09:47.124Z,0.95
2023-08-15T09:12:37.025Z,1.27
2023-08-15T09:15:07.878Z,1.10
2023-08-15T09:17:37.634Z,1.08
2023-08-15T09:20:13.711Z,1.10
2023-08-15T09:22:45.307Z,1.20
2023-08-15T09:25:15.093Z,0.80
2023-08-15T09:27:44.418Z,0.63
2023-08-15T09:30:14.222Z,1.20
2023-08-15T09:32:45.849Z,0.80
2023-08-15T09:35:15.748Z,0.90
2023-08-15T09:37:43.701Z,0.65
2023-08-15T09:40:17.777Z,0.90
2023-08-15T09:42:47.103Z,0.85
2023-08-15T09:45:16.405Z,1.35
2023-08-15T09:47:47.056Z,0.73
2023-08-15T09:50:16.909Z,0.90
2023-08-15T09:52:49.460Z,1.00
2023-08-15T09:55:20.489Z,1.10
2023-08-15T09:57:48.768Z,1.05
2023-08-15T10:00:18.408Z,1.10
2023-08-15T10:02:50.301Z,1.02
2023-08-15T10:05:23.546Z,0.77
2023-08-15T10:07:52.575Z,0.80
2023-08-15T10:10:21.841Z,0.90
2023-08-15T10:12:52.612Z,0.85
2023-08-15T10:15:22.287Z,0.95
2023-08-15T10:17:53.309Z,0.80
2023-08-15T10:20:22.654Z,0.55
2023-08-15T10:22:56.132Z,0.57
2023-08-15T10:25:45.111Z,0.77
2023-08-15T10:28:14.336Z,0.60
2023-08-15T10:30:50.396Z,0.60
2023-08-15T10:33:23.439Z,0.80
2023-08-15T10:35:54.611Z,0.80
2023-08-15T10:38:24.345Z,0.70
2023-08-15T10:40:55.476Z,0.90
2023-08-15T10:43:27.172Z,0.60
2023-08-15T10:45:59.024Z,0.70
2023-08-15T10:49:00.853Z,0.98
2023-08-15T10:51:31.836Z,0.85
2023-08-15T10:54:01.476Z,0.70
2023-08-15T10:56:31.864Z,0.80
2023-08-15T10:59:01.041Z,0.70
2023-08-15T11:01:30.382Z,0.88
2023-08-15T11:04:00.532Z,0.70
2023-08-15T11:06:30.161Z,0.90
2023-08-15T11:08:59.882Z,0.80
2023-08-15T11:11:28.068Z,0.90
2023-08-15T11:13:57.112Z,0.70
2023-08-15T11:16:25.644Z,0.80
2023-08-15T11:18:53.949Z,0.70
2023-08-15T11:21:23.539Z,0.90
2023-08-15T11:23:55.845Z,0.85
2023-08-15T11:26:27.037Z,0.60
2023-08-15T11:28:55.234Z,0.73
2023-08-15T11:31:24.296Z,0.73
2023-08-15T11:33:53.238Z,0.88
2023-08-15T11:36:24.226Z,0.70
2023-08-15T11:38:53.274Z,0.70
2023-08-15T11:41:21.728Z,1.20
2023-08-15T11:43:50.105Z,1.00
2023-08-15T11:46:18.357Z,1.83
2023-08-15T11:48:47.433Z,2.97
2023-08-15T11:51:22.012Z,0.73
2023-08-15T11:53:55.909Z,0.80
2023-08-15T11:56:24.219Z,0.70
2023-08-15T11:58:52.498Z,1.20
2023-08-15T12:01:20.629Z,1.23
2023-08-15T12:03:48.824Z,1.38
2023-08-15T12:06:17.273Z,1.08
2023-08-15T12:08:47.274Z,1.30
2023-08-15T12:11:24.491Z,1.40
2023-08-15T12:13:52.657Z,1.83
2023-08-15T12:16:21.055Z,1.50
2023-08-15T12:18:49.293Z,1.67
2023-08-15T12:21:17.448Z,2.75
2023-08-15T12:23:45.659Z,2.53
2023-08-15T12:26:13.815Z,2.60
2023-08-15T12:28:43.448Z,2.53
2023-08-15T12:31:11.668Z,2.03
2023-08-15T12:33:46.725Z,2.30
2023-08-15T12:36:16.877Z,2.05
2023-08-15T12:38:45.154Z,2.00
2023-08-15T12:41:14.878Z,2.10
2023-08-15T12:43:44.802Z,1.77
2023-08-15T12:46:13.180Z,2.47
2023-08-15T12:48:41.598Z,2.20
2023-08-15T12:51:09.970Z,2.08
2023-08-15T12:53:38.119Z,1.98
2023-08-15T12:56:06.459Z,1.73
2023-08-15T12:58:34.674Z,2.05
2023-08-15T13:01:04.289Z,1.70
2023-08-15T13:03:32.617Z,2.42
2023-08-15T13:06:00.811Z,1.90
2023-08-15T13:08:28.940Z,2.40
2023-08-15T13:10:57.682Z,2.38
2023-08-15T13:13:26.158Z,2.10
2023-08-15T13:15:54.262Z,2.28
2023-08-15T13:18:24.089Z,2.25
2023-08-15T13:20:52.224Z,2.53
2023-08-15T13:23:20.344Z,3.13
2023-08-15T13:25:48.536Z,2.47
2023-08-15T13:28:16.849Z,2.30
2023-08-15T13:30:47.801Z,2.40
2023-08-15T13:33:17.656Z,2.53
2023-08-15T13:35:47.291Z,2.42
2023-08-15T13:38:15.701Z,2.33
2023-08-15T13:40:43.810Z,2.42
2023-08-15T13:43:13.433Z,2.35
2023-08-15T13:45:41.552Z,2.70
2023-08-15T13:48:09.683Z,2.20
2023-08-15T13:50:37.809Z,2.72
2023-08-15T13:53:07.361Z,2.60
2023-08-15T13:55:35.575Z,2.33
2023-08-15T13:58:04.096Z,2.70
2023-08-15T14:00:33.738Z,2.55
2023-08-15T14:03:02.204Z,2.85
2023-08-15T14:05:30.445Z,2.50
2023-08-15T14:07:58.576Z,2.95
2023-08-15T14:10:28.044Z,2.60
2023-08-15T14:12:56.147Z,2.35
2023-08-15T14:15:24.269Z,2.40
2023-08-15T14:17:52.441Z,2.85
2023-08-15T14:20:21.184Z,2.22
2023-08-15T14:22:49.387Z,2.60
2023-08-15T14:25:17.730Z,2.70
2023-08-15T14:27:47.257Z,2.97
2023-08-15T14:30:15.701Z,2.95
2023-08-15T14:32:43.844Z,2.80
2023-08-15T14:35:12.146Z,2.60
2023-08-15T14:37:40.577Z,3.00
2023-08-15T14:40:09.706Z,2.47
2023-08-15T14:42:38.688Z,2.65
2023-08-15T14:45:09.698Z,2.38
2023-08-15T14:47:39.670Z,2.67
2023-08-15T14:50:08.882Z,2.60
2023-08-15T14:52:41.915Z,2.10
2023-08-15T14:55:12.378Z,2.15
2023-08-15T14:57:40.880Z,2.33
2023-08-15T15:00:12.304Z,2.63
2023-08-15T15:05:12.216Z,2.10
2023-08-15T15:07:40.393Z,2.30
2023-08-15T15:10:09.226Z,2.65
2023-08-15T15:12:37.594Z,2.10
2023-08-15T15:15:06.563Z,2.28
2023-08-15T15:17:36.205Z,2.90
2023-08-15T15:20:05.170Z,2.55
2023-08-15T15:22:33.376Z,2.83
2023-08-15T15:25:01.663Z,2.47
2023-08-15T15:27:29.742Z,2.40
2023-08-15T15:29:57.855Z,2.22
2023-08-15T15:32:26.195Z,2.60
2023-08-15T15:34:55.694Z,2.17
2023-08-15T15:37:24.156Z,2.40
2023-08-15T15:39:52.495Z,2.28
2023-08-15T15:42:20.798Z,2.42
2023-08-15T15:44:49.076Z,2.97
2023-08-15T15:47:17.230Z,2.60
2023-08-15T15:49:45.384Z,3.03
2023-08-15T15:52:14.878Z,2.85
2023-08-15T15:54:43.011Z,2.42
2023-08-15T15:57:11.132Z,2.55
2023-08-15T15:59:39.228Z,2.40
2023-08-15T16:02:07.993Z,2.83
2023-08-15T16:04:36.142Z,2.72
2023-08-15T16:07:04.389Z,2.70
2023-08-15T16:09:34.153Z,2.65
2023-08-15T16:12:02.249Z,2.95
2023-08-15T16:14:30.919Z,3.17
2023-08-15T16:16:59.972Z,3.20
2023-08-15T16:19:28.209Z,2.47
2023-08-15T16:21:56.306Z,2.97
2023-08-15T16:24:24.483Z,2.63
2023-08-15T16:26:53.945Z,3.17
2023-08-15T16:29:22.061Z,3.20
2023-08-15T16:31:50.152Z,2.60
2023-08-15T16:34:18.352Z,2.60
2023-08-15T16:36:46.462Z,3.00
2023-08-15T16:39:14.629Z,2.55
2023-08-15T16:41:42.763Z,2.67
2023-08-15T16:44:12.240Z,3.00
2023-08-15T16:46:40.379Z,2.22
2023-08-15T16:49:08.502Z,2.90
2023-08-15T16:51:36.697Z,3.13
2023-08-15T16:54:05.184Z,2.97
2023-08-15T16:56:33.292Z,2.67
2023-08-15T16:59:01.432Z,2.83
2023-08-15T17:01:30.929Z,2.75
2023-08-15T17:03:59.239Z,2.78
2023-08-15T17:06:27.457Z,3.30
2023-08-15T17:08:56.184Z,2.53
2023-08-15T17:11:24.370Z,2.92
2023-08-15T17:13:52.520Z,3.00
2023-08-15T17:16:20.772Z,2.38
2023-08-15T17:18:50.472Z,2.35
2023-08-15T17:21:18.579Z,2.58
2023-08-15T17:23:46.705Z,2.88
2023-08-15T17:26:14.859Z,2.95
2023-08-15T17:28:42.943Z,2.55
2023-08-15T17:31:13.208Z,2.55
2023-08-15T17:33:41.496Z,2.60
2023-08-15T17:36:11.011Z,2.90
2023-08-15T17:38:39.088Z,2.33
2023-08-15T17:41:07.179Z,2.33
2023-08-15T17:43:35.915Z,2.55
2023-08-15T17:46:04.433Z,2.92
2023-08-15T17:48:32.519Z,2.35
2023-08-15T17:51:00.690Z,2.30
2023-08-15T17:53:30.172Z,2.67
2023-08-15T17:56:00.047Z,2.70
2023-08-15T17:58:31.840Z,2.88
2023-08-15T18:00:59.948Z,2.42
2023-08-15T18:03:28.188Z,2.55
2023-08-15T18:05:56.395Z,2.33
2023-08-15T18:08:24.539Z,2.72
2023-08-15T18:10:54.087Z,2.83
2023-08-15T18:13:22.231Z,2.50
2023-08-15T18:15:50.336Z,3.05
2023-08-15T18:18:18.489Z,2.42
2023-08-15T18:20:46.611Z,2.88
2023-08-15T18:23:14.748Z,3.05
2023-08-15T18:25:42.898Z,2.60
2023-08-15T18:28:12.428Z,2.50
2023-08-15T18:30:40.514Z,2.80
2023-08-15T18:33:08.690Z,3.08
2023-08-15T18:35:36.834Z,2.42
2023-08-15T18:38:05.057Z,2.85
2023-08-15T18:40:33.482Z,2.78
2023-08-15T18:43:01.755Z,2.80
2023-08-15T18:45:31.226Z,3.13
2023-08-15T18:47:59.348Z,3.35
2023-08-15T18:50:27.593Z,2.83
2023-08-15T18:52:55.781Z,3.28
2023-08-15T18:55:23.872Z,3.65
2023-08-15T18:57:51.963Z,2.92
2023-08-15T19:00:21.944Z,3.00
2023-08-15T19:02:51.726Z,3.05
2023-08-15T19:05:19.935Z,3.22
2023-08-15T19:07:48.077Z,3.38
2023-08-15T19:10:16.423Z,3.25
2023-08-15T19:12:44.535Z,3.40
2023-08-15T19:15:18.401Z,3.90
2023-08-15T19:17:49.606Z,6.38
2023-08-15T19:20:20.305Z,7.50
2023-08-15T19:22:48.457Z,5.40
2023-08-15T19:25:16.745Z,5.60
2023-08-15T19:27:45.079Z,4.07
2023-08-15T19:30:13.899Z,3.63
2023-08-15T19:32:43.197Z,2.60
2023-08-15T19:35:11.651Z,2.83
2023-08-15T19:37:41.177Z,3.38
2023-08-15T19:40:10.709Z,2.95
2023-08-15T19:42:44.413Z,3.10
2023-08-15T19:45:13.656Z,2.53
2023-08-15T19:47:42.274Z,3.20
2023-08-15T19:50:11.355Z,3.40
2023-08-15T19:52:40.998Z,2.95
2023-08-15T19:55:10.172Z,2.80
2023-08-15T19:57:38.931Z,2.72
2023-08-15T20:00:11.699Z,3.67
2023-08-15T20:02:41.152Z,6.28
2023-08-15T20:05:10.495Z,5.57
2023-08-15T20:07:40.178Z,3.83
2023-08-15T20:10:12.253Z,3.47
2023-08-15T20:12:41.077Z,3.15
2023-08-15T20:15:10.331Z,2.40
2023-08-15T20:17:38.578Z,2.88
2023-08-15T20:20:08.331Z,2.85
2023-08-15T20:22:36.977Z,2.90
2023-08-15T20:25:07.439Z,2.20
2023-08-15T20:27:35.717Z,2.70
2023-08-15T20:30:03.996Z,1.85
2023-08-15T20:32:31.290Z,2.58
2023-08-15T20:34:59.517Z,2.20
2023-08-15T20:37:28.144Z,1.85
2023-08-15T20:39:56.371Z,2.35
2023-08-15T20:42:26.023Z,2.80
2023-08-15T20:44:54.434Z,1.80
2023-08-15T20:47:22.554Z,1.90
2023-08-15T20:49:50.685Z,2.00
2023-08-15T20:52:18.839Z,2.00
2023-08-15T20:54:48.388Z,2.60
2023-08-15T20:57:16.491Z,2.42
2023-08-15T20:59:46.124Z,3.00
2023-08-15T21:02:14.252Z,2.80
2023-08-15T21:04:42.488Z,1.90
2023-08-15T21:07:10.810Z,2.30
2023-08-15T21:09:38.958Z,2.15
2023-08-15T21:12:07.458Z,1.77
2023-08-15T21:14:35.616Z,1.90
2023-08-15T21:17:05.178Z,2.03
2023-08-15T21:19:33.315Z,2.88
2023-08-15T21:22:01.458Z,1.65
2023-08-15T21:24:29.553Z,2.25
2023-08-15T21:26:57.998Z,1.70
2023-08-15T21:29:26.073Z,1.90
2023-08-15T21:31:54.327Z,2.10
2023-08-15T21:34:23.861Z,2.75
2023-08-15T21:36:52.019Z,2.42
2023-08-15T21:39:20.133Z,3.00
2023-08-15T21:41:48.258Z,3.30
2023-08-15T21:44:18.956Z,3.15
2023-08-15T21:46:47.228Z,3.70
2023-08-15T21:49:15.368Z,4.07
2023-08-15T21:51:44.888Z,4.20
2023-08-15T21:54:13.052Z,4.55
2023-08-15T21:56:41.142Z,4.28
2023-08-15T21:59:09.315Z,3.10
2023-08-15T22:01:37.505Z,6.55
2023-08-15T22:04:07.913Z,5.93
2023-08-15T22:06:36.117Z,5.18
2023-08-15T22:09:05.746Z,3.53
2023-08-15T22:11:33.844Z,3.15
2023-08-15T22:14:02.045Z,2.10
2023-08-15T22:16:30.297Z,1.73
2023-08-15T22:18:58.626Z,2.00
2023-08-15T22:21:26.763Z,1.50
2023-08-15T22:23:54.922Z,1.60
2023-08-15T22:26:24.427Z,1.65
2023-08-15T22:28:52.711Z,2.35
2023-08-15T22:31:20.808Z,1.67
2023-08-15T22:33:48.912Z,2.00
2023-08-15T22:36:17.080Z,1.73
2023-08-15T22:38:45.194Z,2.17
2023-08-15T22:41:13.530Z,1.73
2023-08-15T22:43:42.997Z,2.00
2023-08-15T22:46:11.119Z,1.60
2023-08-15T22:48:39.892Z,1.80
2023-08-15T22:51:08.001Z,1.75
2023-08-15T22:53:36.739Z,1.88
2023-08-15T22:56:04.954Z,2.92
2023-08-15T22:58:33.108Z,2.30
2023-08-15T23:01:02.659Z,2.22
2023-08-15T23:03:31.127Z,2.30
2023-08-15T23:06:03.131Z,3.63
2023-08-15T23:08:31.429Z,3.25
2023-08-15T23:10:59.921Z,3.92
2023-08-15T23:13:28.107Z,4.68
2023-08-15T23:15:56.312Z,4.13
2023-08-15T23:18:25.807Z,4.25
2023-08-15T23:20:54.274Z,3.13
2023-08-15T23:23:22.425Z,4.72
2023-08-15T23:25:50.881Z,4.03
2023-08-15T23:28:19.010Z,4.90
2023-08-15T23:30:47.132Z,4.35
2023-08-15T23:33:15.799Z,4.10
2023-08-15T23:35:45.279Z,4.32
2023-08-15T23:38:13.387Z,3.95
2023-08-15T23:40:41.480Z,4.40
2023-08-15T23:43:09.614Z,4.97
2023-08-15T23:45:37.724Z,4.60
2023-08-15T23:48:06.166Z,4.60
2023-08-15T23:50:34.363Z,4.25
2023-08-15T23:53:04.581Z,5.10
2023-08-15T23:55:32.871Z,3.83
2023-08-15T23:58:00.975Z,4.45
